createdAt,value
2018-04-23T00:01:47.427Z,48.13
2018-04-23T00:07:38.109Z,44.06
2018-04-23T00:13:28.794Z,33.91
2018-04-23T00:19:19.442Z,33.83
2018-04-23T00:25:10.127Z,36.32
2018-04-23T00:31:00.834Z,28.95
2018-04-23T00:36:51.550Z,17.62
2018-04-23T00:42:42.148Z,14.87
2018-04-23T00:48:32.921Z,13.01
2018-04-23T00:54:23.573Z,12.17
2018-04-23T01:00:14.210Z,13.59
2018-04-23T01:06:04.881Z,14.09
2018-04-23T01:11:55.595Z,13.53
2018-04-23T01:17:46.258Z,13.04
2018-04-23T01:23:36.903Z,13.29
2018-04-23T01:29:27.605Z,13.05
2018-04-23T01:35:18.288Z,12.7
2018-04-23T01:41:08.908Z,13.75
2018-04-23T01:46:59.578Z,13.25
2018-04-23T01:52:50.285Z,13.46
2018-04-23T01:58:40.922Z,12.31
2018-04-23T02:04:31.645Z,12.02
2018-04-23T02:10:22.277Z,13.55
2018-04-23T02:16:12.995Z,12.62
2018-04-23T02:22:03.586Z,11.71
2018-04-23T02:27:54.372Z,11.84
2018-04-23T02:33:44.960Z,15.85
2018-04-23T02:39:35.677Z,15.02
2018-04-23T02:45:26.294Z,15.76
2018-04-23T02:51:16.932Z,14.49
2018-04-23T02:57:07.658Z,15.76
2018-04-23T03:02:58.304Z,17.35
2018-04-23T03:08:48.911Z,14.95
2018-04-23T03:14:39.595Z,13.04
2018-04-23T03:20:30.237Z,12.06
2018-04-23T03:26:20.902Z,13.08
2018-04-23T03:32:11.600Z,13.84
2018-04-23T03:38:02.211Z,14.05
2018-04-23T03:43:52.912Z,15.54
2018-04-23T03:49:43.571Z,14.8
2018-04-23T03:55:34.199Z,14.82
2018-04-23T04:01:24.935Z,13.91
2018-04-23T04:07:15.555Z,14.89
2018-04-23T04:13:06.269Z,15.26
2018-04-23T04:18:56.851Z,15.21
2018-04-23T04:24:47.588Z,15.9
2018-04-23T04:30:38.180Z,14.85
2018-04-23T04:36:28.858Z,14.45
2018-04-23T04:42:19.542Z,15.43
2018-04-23T04:48:10.198Z,16.48
2018-04-23T04:54:00.873Z,16.21
2018-04-23T04:59:51.519Z,15.56
2018-04-23T05:05:42.219Z,16.12
2018-04-23T05:11:32.861Z,16.64
2018-04-23T05:17:23.538Z,15.21
2018-04-23T05:23:14.176Z,14.85
2018-04-23T05:29:04.884Z,16.51
2018-04-23T05:34:55.599Z,17.21
2018-04-23T05:40:46.237Z,16.6
2018-04-23T05:46:36.925Z,14.72
2018-04-23T05:52:27.532Z,12.31
2018-04-23T05:58:18.248Z,10.65
2018-04-23T06:04:08.963Z,10.69
2018-04-23T06:09:59.665Z,9.88
2018-04-23T06:15:50.264Z,10.85
2018-04-23T06:21:40.936Z,10.29
2018-04-23T06:27:31.638Z,10.38
2018-04-23T06:33:22.253Z,10.8
2018-04-23T06:39:12.957Z,10.77
2018-04-23T06:45:03.641Z,10.69
2018-04-23T06:50:54.304Z,10.71
2018-04-23T06:56:44.999Z,11.03
2018-04-23T07:02:35.636Z,11.26
2018-04-23T07:08:26.326Z,12.09
2018-04-23T07:14:17.011Z,12.88
2018-04-23T07:20:07.710Z,12.82
2018-04-23T07:25:58.474Z,13.55
2018-04-23T07:31:49.114Z,14.75
2018-04-23T07:37:39.913Z,18.26
2018-04-23T07:43:30.499Z,19.66
2018-04-23T07:49:21.182Z,20.59
2018-04-23T07:55:11.922Z,20.1
2018-04-23T08:01:02.560Z,19.98
2018-04-23T08:06:53.275Z,21.32
2018-04-23T08:12:43.942Z,20.85
2018-04-23T08:18:34.611Z,21.2
2018-04-23T08:24:25.319Z,20.53
2018-04-23T08:30:16.040Z,22.11
2018-04-23T08:36:06.711Z,20.51
2018-04-23T08:41:57.392Z,19.86
2018-04-23T08:47:48.103Z,18.68
2018-04-23T08:53:38.837Z,16.22
2018-04-23T08:59:29.513Z,16.37
2018-04-23T09:05:20.230Z,14.51
2018-04-23T09:11:10.944Z,13.74
2018-04-23T09:17:01.582Z,12.65
2018-04-23T09:22:52.293Z,13.1
2018-04-23T09:28:42.995Z,14.24
2018-04-23T09:34:33.777Z,13.18
2018-04-23T09:40:24.448Z,16.77
2018-04-23T09:46:15.177Z,16.15
2018-04-23T09:52:05.833Z,15.88
2018-04-23T09:57:56.537Z,16.65
2018-04-23T10:03:47.317Z,18.89
2018-04-23T10:09:37.974Z,18.21
2018-04-23T10:15:28.699Z,17.34
2018-04-23T10:21:19.388Z,15.63
2018-04-23T10:27:10.108Z,14.51
2018-04-23T10:33:00.846Z,9.57
2018-04-23T10:38:51.568Z,9.59
2018-04-23T10:44:42.275Z,9.07
2018-04-23T10:50:32.985Z,8.81
2018-04-23T10:56:23.747Z,9.25
2018-04-23T11:02:14.458Z,6.6
2018-04-23T11:08:05.166Z,6.56
2018-04-23T11:13:56.008Z,5.63
2018-04-23T11:19:46.661Z,5.07
2018-04-23T11:25:37.363Z,5.25
2018-04-23T11:31:28.110Z,5.3
2018-04-23T11:37:18.834Z,6.73
2018-04-23T11:43:09.616Z,4.47
2018-04-23T11:49:00.330Z,3.95
2018-04-23T11:54:51.041Z,5
2018-04-23T12:00:41.812Z,3.1
2018-04-23T12:06:32.580Z,4.39
2018-04-23T12:12:23.374Z,3.44
2018-04-23T12:18:14.128Z,3.48
2018-04-23T12:24:04.876Z,4.4
2018-04-23T12:29:55.690Z,4.09
2018-04-23T12:35:46.511Z,3.84
2018-04-23T12:41:37.328Z,4.46
2018-04-23T12:47:28.085Z,4.09
2018-04-23T12:53:18.919Z,5.46
2018-04-23T12:59:09.685Z,3.94
2018-04-23T13:05:00.377Z,4.18
2018-04-23T13:10:51.151Z,3.54
2018-04-23T13:16:41.929Z,4.11
2018-04-23T13:22:32.695Z,3.94
2018-04-23T13:28:23.469Z,4
2018-04-23T13:34:14.305Z,3.66
2018-04-23T13:40:05.041Z,4.66
2018-04-23T13:45:55.924Z,3.07
2018-04-23T13:51:46.724Z,3.82
2018-04-23T13:57:37.510Z,3.86
2018-04-23T14:03:28.374Z,3.67
2018-04-23T14:09:19.224Z,3.36
2018-04-23T14:15:09.966Z,3.9
2018-04-23T14:21:00.785Z,3.57
2018-04-23T14:26:51.625Z,3.85
2018-04-23T14:32:42.416Z,4.13
2018-04-23T14:38:33.229Z,3.46
2018-04-23T14:44:24.006Z,3.55
2018-04-23T14:50:14.788Z,3.52
2018-04-23T14:56:05.589Z,3.51
2018-04-23T15:01:56.344Z,3.6
2018-04-23T15:07:47.156Z,4.25
2018-04-23T15:13:37.901Z,3.63
2018-04-23T15:19:28.656Z,3.59
2018-04-23T15:25:19.431Z,3.22
2018-04-23T15:31:10.238Z,3.56
2018-04-23T15:37:00.945Z,4.4
2018-04-23T15:42:51.703Z,4.41
2018-04-23T15:48:42.493Z,4.51
2018-04-23T15:54:33.209Z,4.15
2018-04-23T16:00:24.015Z,4.41
2018-04-23T16:06:14.719Z,3.95
2018-04-23T16:12:05.455Z,4.24
2018-04-23T16:17:56.206Z,4.27
2018-04-23T16:23:46.972Z,4.06
2018-04-23T16:29:37.721Z,4.24
2018-04-23T16:35:28.491Z,4.24
2018-04-23T16:41:19.257Z,4.94
2018-04-23T16:47:09.917Z,5.28
2018-04-23T16:53:00.685Z,5.61
2018-04-23T16:58:51.416Z,5.05
2018-04-23T17:04:42.147Z,5.24
2018-04-23T17:10:32.914Z,4.67
2018-04-23T17:16:23.614Z,5.46
2018-04-23T17:22:14.345Z,5.61
2018-04-23T17:28:05.140Z,5.18
2018-04-23T17:33:55.800Z,7.6
2018-04-23T17:39:46.524Z,5.79
2018-04-23T17:45:37.258Z,5.6
2018-04-23T17:51:27.974Z,7.95
2018-04-23T17:57:18.677Z,6.32
2018-04-23T18:03:09.414Z,6.4
2018-04-23T18:09:00.169Z,7.39
2018-04-23T18:14:50.841Z,5.5
2018-04-23T18:20:41.575Z,6.51
2018-04-23T18:26:32.265Z,7.05
2018-04-23T18:32:22.951Z,6.51
2018-04-23T18:38:13.665Z,6.16
2018-04-23T18:44:04.395Z,5.36
2018-04-23T18:49:55.072Z,5.9
2018-04-23T18:55:45.806Z,5.56
2018-04-23T19:01:36.478Z,6.55
2018-04-23T19:07:27.206Z,5.06
2018-04-23T19:13:17.946Z,5.66
2018-04-23T19:19:08.613Z,6.66
2018-04-23T19:24:59.282Z,6.59
2018-04-23T19:30:49.990Z,6.26
2018-04-23T19:36:40.883Z,6.81
2018-04-23T19:42:31.383Z,7.19
2018-04-23T19:48:22.078Z,6.75
2018-04-23T19:54:12.769Z,6.41
2018-04-23T20:00:03.447Z,7.04
2018-04-23T20:05:54.158Z,7.37
2018-04-23T20:11:44.814Z,7.75
2018-04-23T20:17:35.533Z,8.18
2018-04-23T20:23:26.207Z,8.74
2018-04-23T20:29:16.865Z,8.39
2018-04-23T20:35:07.557Z,8.21
2018-04-23T20:40:58.257Z,7.98
2018-04-23T20:46:49.012Z,9.19
2018-04-23T20:52:39.622Z,8.66
2018-04-23T20:58:30.322Z,9.28
2018-04-23T21:04:21.009Z,7.99
2018-04-23T21:10:11.717Z,9.79
2018-04-23T21:16:02.380Z,8.52
2018-04-23T21:21:53.063Z,9.8
2018-04-23T21:27:43.741Z,9.36
2018-04-23T21:33:34.414Z,9.17
2018-04-23T21:33:34.434Z,9.17
2018-04-23T21:39:25.119Z,8.96
2018-04-23T21:45:15.806Z,8.81
2018-04-23T21:51:06.449Z,8.88
2018-04-23T21:56:57.194Z,8.52
2018-04-23T22:02:47.848Z,9.51
2018-04-23T22:08:38.551Z,9.57
2018-04-23T22:14:29.205Z,9.25
2018-04-23T22:20:19.887Z,9.76
2018-04-23T22:26:10.606Z,9.89
2018-04-23T22:32:01.234Z,8.34
2018-04-23T22:37:51.917Z,9.1
2018-04-23T22:43:42.588Z,8.88
2018-04-23T22:49:33.289Z,8.63
2018-04-23T22:55:23.944Z,8.93
2018-04-23T23:01:14.645Z,8.98
2018-04-23T23:07:05.323Z,8.93
2018-04-23T23:12:55.958Z,10.35
2018-04-23T23:18:46.647Z,9.86
2018-04-23T23:24:37.289Z,10.26
2018-04-23T23:30:28.000Z,11.87
2018-04-23T23:36:18.665Z,11.4
2018-04-23T23:42:09.325Z,10.22
2018-04-23T23:47:59.966Z,9.41
2018-04-23T23:53:50.606Z,9.75
2018-04-23T23:59:41.346Z,9.59
